createdAt,value
2022-09-07T00:00:36.475Z,15.59
2022-09-07T00:01:35.324Z,15.67
2022-09-07T00:02:35.460Z,15.73
2022-09-07T00:03:35.894Z,15.71
2022-09-07T00:04:35.537Z,15.63
2022-09-07T00:05:35.272Z,15.62
2022-09-07T00:06:35.523Z,15.65
2022-09-07T00:07:35.261Z,15.62
2022-09-07T00:08:35.583Z,15.7
2022-09-07T00:09:35.503Z,15.63
2022-09-07T00:10:34.982Z,15.58
2022-09-07T00:11:34.981Z,15.67
2022-09-07T00:12:35.477Z,15.63
2022-09-07T00:13:35.481Z,15.71
2022-09-07T00:14:35.208Z,15.65
2022-09-07T00:15:35.458Z,15.71
2022-09-07T00:16:35.454Z,15.59
2022-09-07T00:17:35.193Z,15.63
2022-09-07T00:18:35.397Z,15.7
2022-09-07T00:19:35.428Z,15.63
2022-09-07T00:20:35.426Z,15.67
2022-09-07T00:21:35.416Z,15.65
2022-09-07T00:22:35.411Z,15.7
2022-09-07T00:23:35.178Z,15.7
2022-09-07T00:24:35.137Z,15.6
2022-09-07T00:25:36.689Z,15.62
2022-09-07T00:26:34.884Z,15.55
2022-09-07T00:27:35.114Z,15.65
2022-09-07T00:28:34.974Z,15.65
2022-09-07T00:29:35.100Z,15.58
2022-09-07T00:30:35.357Z,15.67
2022-09-07T00:31:35.611Z,15.63
2022-09-07T00:32:34.824Z,15.63
2022-09-07T00:33:35.073Z,15.63
2022-09-07T00:34:35.323Z,15.63
2022-09-07T00:35:35.316Z,15.6
2022-09-07T00:36:35.080Z,15.6
2022-09-07T00:37:35.055Z,15.7
2022-09-07T00:38:35.157Z,15.59
2022-09-07T00:39:35.459Z,15.65
2022-09-07T00:40:35.277Z,15.7
2022-09-07T00:41:35.275Z,15.68
2022-09-07T00:42:34.766Z,15.74
2022-09-07T00:43:35.258Z,15.71
2022-09-07T00:44:35.009Z,15.68
2022-09-07T00:45:34.729Z,15.7
2022-09-07T00:46:34.893Z,15.7
2022-09-07T00:47:35.229Z,15.7
2022-09-07T00:48:35.092Z,15.7
2022-09-07T00:49:35.232Z,15.62
2022-09-07T00:50:34.950Z,15.63
2022-09-07T00:51:35.211Z,15.73
2022-09-07T00:52:34.708Z,15.71
2022-09-07T00:53:35.184Z,15.65
2022-09-07T00:54:34.926Z,15.59
2022-09-07T00:55:34.657Z,15.63
2022-09-07T00:56:34.910Z,15.6
2022-09-07T00:57:35.162Z,15.62
2022-09-07T00:58:35.309Z,15.62
2022-09-07T00:59:35.149Z,15.7
2022-09-07T01:00:34.633Z,15.75
2022-09-07T01:01:35.409Z,15.77
2022-09-07T01:02:35.319Z,15.73
2022-09-07T01:03:35.196Z,15.74
2022-09-07T01:04:35.115Z,15.75
2022-09-07T01:05:35.100Z,15.78
2022-09-07T01:06:35.106Z,15.74
2022-09-07T01:07:35.085Z,15.73
2022-09-07T01:08:34.784Z,15.68
2022-09-07T01:09:34.812Z,15.74
2022-09-07T01:10:35.072Z,15.73
2022-09-07T01:11:35.050Z,15.74
2022-09-07T01:12:35.049Z,15.73
2022-09-07T01:13:34.781Z,15.77
2022-09-07T01:14:34.803Z,15.71
2022-09-07T01:15:34.834Z,15.74
2022-09-07T01:16:35.024Z,15.86
2022-09-07T01:17:34.775Z,15.91
2022-09-07T01:18:35.218Z,15.86
2022-09-07T01:19:35.006Z,15.91
2022-09-07T01:20:34.741Z,15.99
2022-09-07T01:21:34.735Z,15.99
2022-09-07T01:22:34.482Z,16.04
2022-09-07T01:23:34.802Z,16.04
2022-09-07T01:24:34.703Z,15.93
2022-09-07T01:25:34.958Z,16.04
2022-09-07T01:26:34.698Z,16.14
2022-09-07T01:27:34.437Z,16.17
2022-09-07T01:28:35.258Z,16.25
2022-09-07T01:29:34.944Z,16.22
2022-09-07T01:30:34.660Z,16.13
2022-09-07T01:31:34.850Z,16.21
2022-09-07T01:32:34.911Z,16.18
2022-09-07T01:33:34.902Z,16.21
2022-09-07T01:34:34.633Z,16.18
2022-09-07T01:35:34.631Z,16.21
2022-09-07T01:36:34.627Z,16.22
2022-09-07T01:38:34.531Z,16.27
2022-09-07T01:39:35.028Z,16.16
2022-09-07T01:40:34.856Z,16.27
2022-09-07T01:41:34.851Z,16.1
2022-09-07T01:42:34.602Z,16.32
2022-09-07T01:43:34.836Z,16.21
2022-09-07T01:44:34.561Z,16.22
2022-09-07T01:45:34.812Z,16.16
2022-09-07T01:46:34.792Z,16.08
2022-09-07T01:47:34.814Z,16.1
2022-09-07T01:48:34.985Z,16.07
2022-09-07T01:49:34.529Z,16.06
2022-09-07T01:50:34.779Z,16.06
2022-09-07T01:51:34.778Z,16.14
2022-09-07T01:52:34.511Z,16.06
2022-09-07T01:53:34.773Z,16.1
2022-09-07T01:54:34.494Z,16.13
2022-09-07T01:55:34.747Z,16.21
2022-09-07T01:56:34.478Z,16.29
2022-09-07T01:57:34.471Z,16.21
2022-09-07T01:58:34.704Z,16.25
2022-09-07T01:59:34.717Z,16.25
2022-09-07T02:00:34.460Z,16.25
2022-09-07T02:01:34.598Z,16.1
2022-09-07T02:02:34.917Z,16.22
2022-09-07T02:03:34.695Z,16.25
2022-09-07T02:04:34.432Z,16.27
2022-09-07T02:05:34.169Z,16.36
2022-09-07T02:06:34.411Z,16.3
2022-09-07T02:07:34.403Z,16.32
2022-09-07T02:08:34.738Z,16.32
2022-09-07T02:09:34.642Z,16.36
2022-09-07T02:10:34.383Z,16.32
2022-09-07T02:11:34.400Z,16.39
2022-09-07T02:12:34.633Z,16.27
2022-09-07T02:13:34.620Z,16.29
2022-09-07T02:14:34.365Z,16.29
2022-09-07T02:15:34.713Z,16.29
2022-09-07T02:16:34.092Z,16.36
2022-09-07T02:17:34.598Z,16.37
2022-09-07T02:18:34.732Z,16.4
2022-09-07T02:19:34.316Z,16.52
2022-09-07T02:20:34.332Z,16.55
2022-09-07T02:21:34.312Z,16.48
2022-09-07T02:22:34.299Z,16.55
2022-09-07T02:23:34.291Z,16.44
2022-09-07T02:24:34.544Z,16.51
2022-09-07T02:25:34.286Z,16.51
2022-09-07T02:26:34.283Z,16.48
2022-09-07T02:27:34.273Z,16.55
2022-09-07T02:28:35.130Z,16.47
2022-09-07T02:29:35.685Z,16.48
2022-09-07T02:30:34.253Z,16.48
2022-09-07T02:31:34.466Z,16.44
2022-09-07T02:32:34.492Z,16.44
2022-09-07T02:33:34.237Z,16.52
2022-09-07T02:34:34.473Z,16.49
2022-09-07T02:35:34.217Z,16.48
2022-09-07T02:36:34.213Z,16.48
2022-09-07T02:37:34.195Z,16.48
2022-09-07T02:38:34.246Z,16.48
2022-09-07T02:39:34.116Z,16.47
2022-09-07T02:40:34.186Z,16.48
2022-09-07T02:41:34.171Z,16.48
2022-09-07T02:42:34.162Z,16.51
2022-09-07T02:43:34.412Z,16.45
2022-09-07T02:44:34.161Z,16.57
2022-09-07T02:45:34.144Z,16.59
2022-09-07T02:46:34.678Z,16.63
2022-09-07T02:47:34.396Z,16.63
2022-09-07T02:48:34.309Z,16.63
2022-09-07T02:49:34.376Z,16.58
2022-09-07T02:50:34.112Z,16.66
2022-09-07T02:51:34.103Z,16.65
2022-09-07T02:52:34.100Z,16.62
2022-09-07T02:53:33.837Z,16.57
2022-09-07T02:54:34.082Z,16.62
2022-09-07T02:55:34.073Z,16.55
2022-09-07T02:56:34.326Z,16.52
2022-09-07T02:57:34.070Z,16.59
2022-09-07T02:58:34.586Z,16.54
2022-09-07T02:59:34.303Z,16.52
2022-09-07T03:00:34.050Z,16.54
2022-09-07T03:01:34.313Z,16.52
2022-09-07T03:02:34.594Z,16.51
2022-09-07T03:03:34.026Z,16.59
2022-09-07T03:04:34.277Z,16.57
2022-09-07T03:05:34.274Z,16.55
2022-09-07T03:06:34.009Z,16.58
2022-09-07T03:07:41.003Z,16.62
2022-09-07T03:08:34.526Z,16.57
2022-09-07T03:09:33.983Z,16.58
2022-09-07T03:10:33.987Z,16.54
2022-09-07T03:11:34.226Z,16.67
2022-09-07T03:12:33.966Z,16.7
2022-09-07T03:13:34.148Z,16.73
2022-09-07T03:14:34.262Z,16.74
2022-09-07T03:15:33.890Z,16.69
2022-09-07T03:16:34.188Z,16.72
2022-09-07T03:17:34.187Z,16.67
2022-09-07T03:18:34.589Z,16.74
2022-09-07T03:19:33.927Z,16.74
2022-09-07T03:20:33.911Z,16.63
2022-09-07T03:21:33.912Z,16.63
2022-09-07T03:22:34.167Z,16.65
2022-09-07T03:23:34.146Z,16.69
2022-09-07T03:24:33.889Z,16.69
2022-09-07T03:25:33.886Z,16.57
2022-09-07T03:26:34.127Z,16.54
2022-09-07T03:27:33.620Z,16.55
2022-09-07T03:28:34.419Z,16.62
2022-09-07T03:29:33.854Z,16.66
2022-09-07T03:30:34.282Z,16.54
2022-09-07T03:31:34.092Z,16.66
2022-09-07T03:32:34.101Z,16.57
2022-09-07T03:49:50.903Z,16.59
2022-09-07T03:50:50.879Z,16.55
2022-09-07T03:51:50.607Z,16.44
2022-09-07T03:52:50.860Z,16.51
2022-09-07T03:53:50.593Z,16.51
2022-09-07T03:54:50.838Z,16.42
2022-09-07T03:55:50.569Z,16.55
2022-09-07T03:56:50.573Z,16.45
2022-09-07T03:57:50.568Z,16.45
2022-09-07T03:58:50.546Z,16.54
2022-09-07T03:59:50.538Z,16.47
2022-09-07T04:00:50.536Z,16.51
2022-09-07T04:01:50.947Z,16.44
2022-09-07T04:02:50.916Z,16.42
2022-09-07T04:03:50.814Z,16.3
2022-09-07T04:04:50.763Z,16.4
2022-09-07T04:05:50.500Z,16.39
2022-09-07T04:06:50.746Z,16.42
2022-09-07T04:07:50.728Z,16.42
2022-09-07T04:08:50.466Z,16.32
2022-09-07T04:09:50.208Z,16.3
2022-09-07T04:10:50.716Z,16.29
2022-09-07T04:11:50.448Z,16.29
2022-09-07T04:12:50.695Z,16.32
2022-09-07T04:13:50.184Z,16.33
2022-09-07T04:14:50.685Z,16.29
2022-09-07T04:15:55.694Z,16.33
2022-09-07T04:16:50.318Z,16.29
2022-09-07T04:17:50.406Z,16.34
2022-09-07T04:18:50.661Z,16.21
2022-09-07T04:19:50.152Z,16.3
2022-09-07T04:20:50.648Z,16.3
2022-09-07T04:21:50.122Z,16.29
2022-09-07T04:22:54.927Z,16.32
2022-09-07T04:23:50.131Z,16.32
2022-09-07T04:24:50.618Z,16.27
2022-09-07T04:25:50.611Z,16.3
2022-09-07T04:26:50.597Z,16.18
2022-09-07T04:27:50.337Z,16.27
2022-09-07T04:28:50.331Z,16.26
2022-09-07T04:29:50.331Z,16.27
2022-09-07T04:30:50.596Z,16.33
2022-09-07T04:31:50.067Z,16.37
2022-09-07T04:32:50.565Z,16.3
2022-09-07T04:33:50.551Z,16.37
2022-09-07T04:34:50.298Z,16.32
2022-09-07T04:35:50.285Z,16.37
2022-09-07T04:36:50.525Z,16.27
2022-09-07T04:37:50.014Z,16.4
2022-09-07T04:38:50.521Z,16.32
2022-09-07T04:39:50.737Z,16.34
2022-09-07T04:40:50.246Z,16.32
2022-09-07T04:41:50.245Z,16.32
2022-09-07T04:42:50.490Z,16.3
2022-09-07T04:43:50.486Z,16.36
2022-09-07T04:44:50.219Z,16.29
2022-09-07T04:45:50.517Z,16.37
2022-09-07T04:46:50.212Z,16.52
2022-09-07T04:47:50.201Z,16.54
2022-09-07T04:48:50.444Z,16.44
2022-09-07T04:49:50.182Z,16.47
2022-09-07T04:50:49.925Z,16.57
2022-09-07T04:51:50.175Z,16.65
2022-09-07T04:52:50.161Z,16.65
2022-09-07T04:53:50.154Z,16.69
2022-09-07T04:54:50.405Z,16.69
2022-09-07T04:55:50.154Z,16.67
2022-09-07T04:56:50.389Z,16.67
2022-09-07T04:57:50.387Z,16.69
2022-09-07T04:58:50.404Z,16.72
2022-09-07T04:59:49.869Z,16.72
2022-09-07T05:00:50.429Z,16.73
2022-09-07T05:01:50.584Z,16.7
2022-09-07T05:02:50.597Z,16.72
2022-09-07T05:03:50.100Z,16.76
2022-09-07T05:04:50.343Z,16.82
2022-09-07T05:05:50.334Z,16.72
2022-09-07T05:06:50.332Z,16.81
2022-09-07T05:07:50.071Z,16.85
2022-09-07T05:08:50.057Z,16.85
2022-09-07T05:09:50.314Z,16.91
2022-09-07T05:10:50.306Z,16.9
2022-09-07T05:11:50.048Z,16.95
2022-09-07T05:12:50.041Z,16.95
2022-09-07T05:13:50.026Z,16.95
2022-09-07T05:14:50.023Z,16.92
2022-09-07T05:15:50.013Z,16.92
2022-09-07T05:16:50.016Z,17
2022-09-07T05:17:50.011Z,17.03
2022-09-07T05:18:50.254Z,17.05
2022-09-07T05:19:50.251Z,17.06
2022-09-07T05:20:50.237Z,17.07
2022-09-07T05:21:50.231Z,17.13
2022-09-07T05:22:49.973Z,17.18
2022-09-07T05:23:50.216Z,17.21
2022-09-07T05:24:49.707Z,17.25
2022-09-07T05:25:49.950Z,17.24
2022-09-07T05:26:49.949Z,17.15
2022-09-07T05:27:50.225Z,17.25
2022-09-07T05:28:50.362Z,17.31
2022-09-07T05:30:03.567Z,17.22
2022-09-07T05:31:20.351Z,17.42
2022-09-07T05:32:19.416Z,17.28
2022-09-07T05:33:19.235Z,17.28
2022-09-07T05:34:31.248Z,17.28
2022-09-07T05:35:31.018Z,17.35
2022-09-07T05:36:31.519Z,17.45
2022-09-07T05:37:31.510Z,17.46
2022-09-07T05:38:31.670Z,17.49
2022-09-07T05:39:31.901Z,17.54
2022-09-07T05:40:31.231Z,17.43
2022-09-07T05:41:31.486Z,17.52
2022-09-07T05:42:31.501Z,17.55
2022-09-07T05:43:31.218Z,17.47
2022-09-07T05:45:01.218Z,17.49
2022-09-07T05:45:31.508Z,17.62
2022-09-07T05:46:31.201Z,17.62
2022-09-07T05:47:31.446Z,17.69
2022-09-07T05:48:31.735Z,17.71
2022-09-07T05:49:31.437Z,17.83
2022-09-07T05:50:31.173Z,17.88
2022-09-07T05:51:31.164Z,17.98
2022-09-07T05:52:31.156Z,18.06
2022-09-07T05:53:31.160Z,18.06
2022-09-07T05:54:31.153Z,18.16
2022-09-07T05:55:35.099Z,18.17
2022-09-07T05:56:31.143Z,18.29
2022-09-07T05:57:31.398Z,18.32
2022-09-07T05:58:30.965Z,18.31
2022-09-07T05:59:30.868Z,18.35
2022-09-07T06:00:31.197Z,18.41
2022-09-07T06:01:31.368Z,18.53
2022-09-07T06:02:31.913Z,18.57
2022-09-07T06:03:31.676Z,18.54
2022-09-07T06:04:31.100Z,18.6
2022-09-07T06:05:31.089Z,18.6
2022-09-07T06:06:30.823Z,18.68
2022-09-07T06:07:30.821Z,18.74
2022-09-07T06:08:31.434Z,18.75
2022-09-07T06:09:35.509Z,18.84
2022-09-07T06:10:47.962Z,18.87
2022-09-07T06:11:47.685Z,18.9
2022-09-07T06:12:51.806Z,19.05
2022-09-07T06:13:47.682Z,19.07
2022-09-07T06:14:47.921Z,19.07
2022-09-07T06:15:47.917Z,18.99
2022-09-07T06:16:47.858Z,18.99
2022-09-07T06:17:47.665Z,18.99
2022-09-07T06:18:47.905Z,18.96
2022-09-07T06:19:47.391Z,18.99
2022-09-07T06:20:47.662Z,18.96
2022-09-07T06:21:47.640Z,18.91
2022-09-07T06:22:47.622Z,18.89
2022-09-07T06:23:47.616Z,18.76
2022-09-07T06:24:47.618Z,18.78
2022-09-07T06:25:47.877Z,18.76
2022-09-07T06:26:47.353Z,18.71
2022-09-07T06:27:47.604Z,18.76
2022-09-07T06:28:53.804Z,18.68
2022-09-07T06:29:47.851Z,18.65
2022-09-07T06:30:47.592Z,18.66
2022-09-07T06:32:47.381Z,18.56
2022-09-07T06:32:56.628Z,18.59
2022-09-07T06:33:57.140Z,18.47
2022-09-07T06:34:57.137Z,18.44
2022-09-07T06:35:56.867Z,18.32
2022-09-07T06:36:57.133Z,18.35
2022-09-07T06:37:56.861Z,18.27
2022-09-07T06:38:56.865Z,18.23
2022-09-07T06:39:57.403Z,18.23
2022-09-07T06:42:00.599Z,18.31
2022-09-07T06:42:10.096Z,18.19
2022-09-07T06:43:10.363Z,18.2
2022-09-07T06:44:10.347Z,18.26
2022-09-07T06:45:10.339Z,18.24
2022-09-07T06:47:10.054Z,18.27
2022-09-07T06:47:19.806Z,18.19
2022-09-07T06:48:19.799Z,18.31
2022-09-07T06:49:19.595Z,18.39
2022-09-07T06:50:19.535Z,18.41
2022-09-07T06:51:19.536Z,18.49
2022-09-07T06:52:19.260Z,18.53
2022-09-07T06:53:50.408Z,18.75
2022-09-07T06:55:00.689Z,18.89
2022-09-07T06:56:00.836Z,19.13
2022-09-07T06:57:00.576Z,19.24
2022-09-07T06:58:00.568Z,19.32
2022-09-07T06:59:00.567Z,19.56
2022-09-07T07:00:00.830Z,19.8
2022-09-07T07:01:01.006Z,19.97
2022-09-07T07:02:00.554Z,20.12
2022-09-07T07:03:00.744Z,20.18
2022-09-07T07:04:00.546Z,20.34
2022-09-07T07:05:00.566Z,20.41
2022-09-07T07:06:00.793Z,20.49
2022-09-07T07:07:00.275Z,20.41
2022-09-07T07:08:00.539Z,20.42
2022-09-07T07:09:00.521Z,20.4
2022-09-07T07:10:00.520Z,20.61
2022-09-07T07:11:00.253Z,20.83
2022-09-07T07:12:00.252Z,21.08
2022-09-07T07:13:01.244Z,21.23
2022-09-07T07:14:00.753Z,21.28
2022-09-07T07:15:00.757Z,21.33
2022-09-07T07:16:00.662Z,21.33
2022-09-07T07:17:00.737Z,21.45
2022-09-07T07:18:22.702Z,21.51
2022-09-07T07:19:00.741Z,21.52
2022-09-07T07:20:00.478Z,21.61
2022-09-07T07:21:00.471Z,21.74
2022-09-07T07:22:49.776Z,21.94
2022-09-07T07:23:00.728Z,21.86
2022-09-07T07:24:02.182Z,21.96
2022-09-07T07:25:00.459Z,22
2022-09-07T07:26:00.720Z,22.05
2022-09-07T07:27:00.459Z,22
2022-09-07T07:29:11.513Z,22.15
2022-09-07T07:30:10.824Z,22.12
2022-09-07T07:31:15.564Z,22.22
2022-09-07T07:32:10.569Z,22.3
2022-09-07T07:33:11.899Z,22.31
2022-09-07T07:34:11.381Z,22.45
2022-09-07T07:35:10.820Z,22.42
2022-09-07T07:36:10.823Z,22.59
2022-09-07T07:37:11.234Z,22.6
2022-09-07T07:40:33.237Z,22.49
2022-09-07T07:41:55.226Z,22.46
2022-09-07T07:42:23.540Z,22.49
2022-09-07T07:43:21.154Z,22.45
2022-09-07T07:44:21.154Z,22.42
2022-09-07T07:45:59.231Z,22.38
2022-09-07T07:46:21.821Z,22.39
2022-09-07T07:47:21.658Z,22.38
2022-09-07T07:48:21.396Z,22.45
2022-09-07T07:49:21.804Z,22.33
2022-09-07T07:50:37.819Z,22.3
2022-09-07T07:51:21.650Z,22.31
2022-09-07T07:53:41.002Z,22.12
2022-09-07T07:53:51.074Z,22.11
2022-09-07T07:54:51.078Z,22.07
2022-09-07T07:55:51.123Z,21.82
2022-09-07T07:56:51.357Z,21.78
2022-09-07T07:57:50.815Z,21.64
2022-09-07T07:58:51.348Z,21.48
2022-09-07T07:59:51.090Z,21.43
2022-09-07T08:01:00.819Z,21.23
2022-09-07T08:01:51.245Z,21.28
2022-09-07T08:02:51.293Z,21.23
2022-09-07T08:03:51.314Z,21.13
2022-09-07T08:04:51.425Z,21.16
2022-09-07T08:05:51.061Z,21.09
2022-09-07T08:06:51.313Z,21.13
2022-09-07T08:07:51.298Z,21.09
2022-09-07T08:08:51.044Z,21.18
2022-09-07T08:09:51.301Z,21.19
2022-09-07T08:10:51.037Z,21.15
2022-09-07T08:11:51.033Z,21.13
2022-09-07T08:12:51.037Z,21.22
2022-09-07T08:13:51.036Z,21.27
2022-09-07T08:14:51.028Z,21.25
2022-09-07T08:15:51.983Z,21.3
2022-09-07T08:16:50.946Z,21.27
2022-09-07T08:17:51.289Z,21.4
2022-09-07T08:18:51.784Z,21.45
2022-09-07T08:19:51.263Z,21.52
2022-09-07T08:20:51.350Z,21.62
2022-09-07T08:21:51.014Z,21.66
2022-09-07T08:22:51.264Z,21.74
2022-09-07T08:23:51.266Z,21.74
2022-09-07T08:24:51.000Z,21.82
2022-09-07T08:25:51.266Z,22
2022-09-07T08:26:50.997Z,21.93
2022-09-07T08:27:50.986Z,21.96
2022-09-07T08:28:50.736Z,22.05
2022-09-07T08:29:51.248Z,22.09
2022-09-07T08:30:50.988Z,22.12
2022-09-07T08:31:51.538Z,22.27
2022-09-07T08:32:51.232Z,22.38
2022-09-07T08:33:50.726Z,22.34
2022-09-07T08:34:50.728Z,22.41
2022-09-07T08:35:51.230Z,22.44
2022-09-07T08:36:51.429Z,22.55
2022-09-07T08:37:50.972Z,22.54
2022-09-07T08:38:51.218Z,22.78
2022-09-07T08:39:51.329Z,22.85
2022-09-07T08:40:50.981Z,22.89
2022-09-07T08:41:51.219Z,22.97
2022-09-07T08:42:50.704Z,23.04
2022-09-07T08:43:53.662Z,23.12
2022-09-07T08:44:50.701Z,23.21
2022-09-07T08:45:51.209Z,23.35
2022-09-07T08:46:51.263Z,23.47
2022-09-07T08:47:50.703Z,23.41
2022-09-07T08:48:51.220Z,23.59
2022-09-07T08:49:50.966Z,23.5
2022-09-07T08:50:50.961Z,23.53
2022-09-07T08:51:51.218Z,23.52
2022-09-07T08:52:51.290Z,23.56
2022-09-07T08:53:50.976Z,23.52
2022-09-07T08:54:51.202Z,23.5
2022-09-07T08:55:51.208Z,23.47
2022-09-07T08:57:24.085Z,23.44
2022-09-07T08:57:50.938Z,23.48
2022-09-07T08:58:54.903Z,23.56
2022-09-07T08:59:50.935Z,23.44
2022-09-07T09:01:30.290Z,23.52
2022-09-07T09:02:42.137Z,23.42
2022-09-07T09:06:22.376Z,23.24
2022-09-07T09:07:21.614Z,23.32
2022-09-07T09:08:21.959Z,23.18
2022-09-07T09:09:21.885Z,23.18
2022-09-07T09:10:21.890Z,23.26
2022-09-07T09:11:21.389Z,23.25
2022-09-07T09:12:21.867Z,23.22
2022-09-07T09:13:21.364Z,23.18
2022-09-07T09:14:21.686Z,23.15
2022-09-07T09:15:21.885Z,23
2022-09-07T09:16:22.020Z,23.01
2022-09-07T09:17:21.612Z,22.94
2022-09-07T09:18:21.350Z,23.01
2022-09-07T09:19:21.915Z,23.06
2022-09-07T09:20:21.599Z,23
2022-09-07T09:21:21.853Z,23
2022-09-07T09:22:21.601Z,23.06
2022-09-07T09:23:21.863Z,23.15
2022-09-07T09:24:21.944Z,23.25
2022-09-07T09:25:21.591Z,23.26
2022-09-07T09:26:21.603Z,23.28
2022-09-07T09:27:21.360Z,23.37
2022-09-07T09:28:21.351Z,23.53
2022-09-07T09:29:21.600Z,23.5
2022-09-07T09:30:21.602Z,23.55
2022-09-07T09:31:22.159Z,23.57
2022-09-07T09:32:21.622Z,23.64
2022-09-07T09:33:21.874Z,23.66
2022-09-07T09:34:28.678Z,23.59
2022-09-07T09:35:21.578Z,23.62
2022-09-07T09:36:21.832Z,23.64
2022-09-07T09:37:21.769Z,23.66
2022-09-07T09:38:21.586Z,23.66
2022-09-07T09:39:21.585Z,23.67
2022-09-07T09:40:22.152Z,23.7
2022-09-07T09:41:21.582Z,23.87
2022-09-07T09:42:21.825Z,24.14
2022-09-07T09:43:21.315Z,24.24
2022-09-07T09:44:21.314Z,24.18
2022-09-07T09:45:21.826Z,24.29
2022-09-07T09:46:21.952Z,24.17
2022-09-07T09:47:38.049Z,24.17
2022-09-07T09:48:21.824Z,24.12
2022-09-07T09:49:21.811Z,24.15
2022-09-07T09:52:47.849Z,24.45
2022-09-07T09:53:00.105Z,24.52
2022-09-07T09:54:00.358Z,24.64
2022-09-07T09:55:36.344Z,24.83
2022-09-07T09:56:00.416Z,24.78
2022-09-07T09:57:00.360Z,24.96
2022-09-07T09:59:56.584Z,25.11
2022-09-07T10:00:31.588Z,25.04
2022-09-07T10:04:14.771Z,25.26
2022-09-07T10:05:04.137Z,25.26
2022-09-07T10:06:04.136Z,25.24
2022-09-07T10:07:04.144Z,25.29
2022-09-07T10:08:04.142Z,25.27
2022-09-07T10:09:03.934Z,25.3
2022-09-07T10:10:04.395Z,25.27
2022-09-07T10:11:04.458Z,25.32
2022-09-07T10:12:12.573Z,25.38
2022-09-07T10:13:04.141Z,25.37
2022-09-07T10:14:04.400Z,25.33
2022-09-07T10:15:04.129Z,25.41
2022-09-07T10:16:04.325Z,25.41
2022-09-07T10:17:04.799Z,25.38
2022-09-07T10:18:04.130Z,25.52
2022-09-07T10:19:04.121Z,25.49
2022-09-07T10:20:04.391Z,25.32
2022-09-07T10:21:03.873Z,25.39
2022-09-07T10:22:04.383Z,25.15
2022-09-07T10:23:04.123Z,25.02
2022-09-07T10:24:04.381Z,24.83
2022-09-07T10:25:03.898Z,24.59
2022-09-07T10:26:04.375Z,24.46
2022-09-07T10:27:04.447Z,24.3
2022-09-07T10:28:04.378Z,24.19
2022-09-07T10:29:12.623Z,24.12
2022-09-07T10:30:06.778Z,24.07
2022-09-07T10:31:04.599Z,24.02
2022-09-07T10:32:04.133Z,24.11
2022-09-07T10:33:04.384Z,24.21
2022-09-07T10:34:34.177Z,24.3
2022-09-07T10:35:05.241Z,24.36
2022-09-07T10:36:04.123Z,24.4
2022-09-07T10:37:03.860Z,24.52
2022-09-07T10:38:04.119Z,24.56
2022-09-07T10:39:04.112Z,24.7
2022-09-07T10:40:05.726Z,24.89
2022-09-07T10:41:04.115Z,25.01
2022-09-07T10:42:04.366Z,25
2022-09-07T10:43:34.455Z,25.02
2022-09-07T10:44:05.281Z,25.01
2022-09-07T10:45:04.119Z,25.09
2022-09-07T10:46:04.315Z,25.11
2022-09-07T10:47:04.803Z,24.94
2022-09-07T10:48:04.369Z,24.86
2022-09-07T10:49:03.855Z,24.69
2022-09-07T10:50:34.097Z,24.42
2022-09-07T10:51:16.698Z,24.37
2022-09-07T10:52:04.110Z,24.21
2022-09-07T10:53:39.987Z,24.19
2022-09-07T10:54:34.237Z,24.24
2022-09-07T10:55:04.126Z,24.32
2022-09-07T10:56:04.363Z,24.49
2022-09-07T10:57:04.364Z,24.7
2022-09-07T10:58:04.358Z,24.83
2022-09-07T10:59:08.400Z,24.85
2022-09-07T11:00:19.755Z,24.8
2022-09-07T11:01:04.757Z,24.8
2022-09-07T11:02:03.848Z,24.7
2022-09-07T11:03:34.019Z,24.69
2022-09-07T11:04:04.615Z,24.86
2022-09-07T11:05:04.115Z,25.09
2022-09-07T11:06:04.359Z,25.33
2022-09-07T11:07:04.107Z,25.45
2022-09-07T11:08:03.848Z,25.52
2022-09-07T11:09:22.111Z,25.59
2022-09-07T11:10:04.372Z,25.64
2022-09-07T11:11:04.353Z,25.62
2022-09-07T11:12:07.196Z,25.62
2022-09-07T11:13:04.361Z,25.69
2022-09-07T11:14:17.466Z,25.62
2022-09-07T11:15:04.126Z,25.6
2022-09-07T11:16:04.415Z,25.7
2022-09-07T11:17:04.086Z,25.64
2022-09-07T11:18:04.352Z,25.63
2022-09-07T11:19:38.599Z,25.59
2022-09-07T11:20:04.121Z,25.6
2022-09-07T11:21:04.360Z,25.74
2022-09-07T11:22:04.367Z,25.82
2022-09-07T11:23:03.857Z,25.91
2022-09-07T11:24:03.853Z,25.91
2022-09-07T11:25:34.212Z,25.97
2022-09-07T11:26:04.106Z,25.91
2022-09-07T11:27:04.368Z,25.81
2022-09-07T11:28:04.366Z,25.81
2022-09-07T11:29:34.168Z,25.63
2022-09-07T11:30:04.105Z,25.69
2022-09-07T11:31:05.358Z,25.82
2022-09-07T11:32:04.114Z,25.88
2022-09-07T11:33:04.366Z,26.04
2022-09-07T11:34:33.843Z,26.04
2022-09-07T11:35:04.374Z,26
2022-09-07T11:36:04.603Z,25.93
2022-09-07T11:37:04.383Z,25.88
2022-09-07T11:38:04.173Z,25.81
2022-09-07T11:39:04.133Z,25.76
2022-09-07T11:40:04.350Z,25.71
2022-09-07T11:41:03.854Z,25.76
2022-09-07T11:42:45.327Z,25.66
2022-09-07T11:43:04.367Z,25.74
2022-09-07T11:44:04.117Z,25.79
2022-09-07T11:45:04.229Z,25.85
2022-09-07T11:46:04.286Z,25.89
2022-09-07T11:47:04.392Z,25.89
2022-09-07T11:48:04.391Z,26.06
2022-09-07T11:49:06.988Z,26.03
2022-09-07T11:50:04.526Z,26
2022-09-07T11:51:04.376Z,26.06
2022-09-07T11:52:09.968Z,26.07
2022-09-07T11:53:03.884Z,26.26
2022-09-07T11:54:04.122Z,26.26
2022-09-07T11:55:04.377Z,26.41
2022-09-07T11:56:04.126Z,26.44
2022-09-07T11:57:04.143Z,26.41
2022-09-07T11:58:04.132Z,26.54
2022-09-07T11:59:04.139Z,26.56
2022-09-07T12:00:04.399Z,26.67
2022-09-07T12:01:04.454Z,26.87
2022-09-07T12:02:04.399Z,27
2022-09-07T12:03:05.868Z,27.23
2022-09-07T12:04:04.859Z,27.26
2022-09-07T12:05:04.862Z,27.21
2022-09-07T12:06:04.406Z,27.19
2022-09-07T12:07:03.880Z,27.08
2022-09-07T12:08:04.141Z,27
2022-09-07T12:09:04.155Z,26.86
2022-09-07T12:10:03.936Z,26.76
2022-09-07T12:11:04.146Z,26.6
2022-09-07T12:12:04.414Z,26.47
2022-09-07T12:13:04.401Z,26.35
2022-09-07T12:14:04.146Z,26.12
2022-09-07T12:15:04.165Z,26.03
2022-09-07T12:16:04.101Z,25.94
2022-09-07T12:17:04.461Z,25.94
2022-09-07T12:18:04.411Z,25.91
2022-09-07T12:19:04.435Z,25.91
2022-09-07T12:20:04.271Z,25.88
2022-09-07T12:21:04.426Z,25.91
2022-09-07T12:22:04.424Z,25.79
2022-09-07T12:23:08.815Z,25.79
2022-09-07T12:24:04.163Z,25.74
2022-09-07T12:25:04.168Z,25.7
2022-09-07T12:26:03.913Z,25.56
2022-09-07T12:27:04.161Z,25.49
2022-09-07T12:28:04.421Z,25.56
2022-09-07T12:29:04.178Z,25.67
2022-09-07T12:30:04.518Z,25.74
2022-09-07T12:31:04.608Z,25.75
2022-09-07T12:32:59.581Z,25.79
2022-09-07T12:33:09.753Z,25.76
2022-09-07T12:34:09.968Z,25.81
2022-09-07T12:35:09.434Z,25.84
2022-09-07T12:36:09.444Z,25.88
2022-09-07T12:37:14.807Z,25.84
2022-09-07T12:38:09.946Z,25.82
2022-09-07T12:39:09.696Z,25.84
2022-09-07T12:40:10.269Z,25.89
2022-09-07T12:41:09.942Z,25.93
2022-09-07T12:42:40.278Z,25.89
2022-09-07T12:43:14.846Z,25.93
2022-09-07T12:44:09.690Z,25.89
2022-09-07T12:45:09.958Z,25.85
2022-09-07T12:46:10.192Z,25.94
2022-09-07T12:47:09.453Z,26.03
2022-09-07T12:48:10.012Z,26.17
2022-09-07T12:49:09.959Z,26.27
2022-09-07T12:50:10.587Z,26.45
2022-09-07T12:51:09.702Z,26.53
2022-09-07T12:52:20.823Z,26.68
2022-09-07T12:53:09.713Z,26.68
2022-09-07T12:54:09.709Z,26.69
2022-09-07T12:55:33.744Z,26.63
2022-09-07T12:56:23.279Z,26.53
2022-09-07T12:57:38.708Z,26.49
2022-09-07T12:58:23.198Z,26.37
2022-09-07T12:59:25.127Z,26.34
2022-09-07T13:00:23.184Z,26.16
2022-09-07T13:01:23.664Z,26.15
2022-09-07T13:02:23.882Z,26
2022-09-07T13:03:54.521Z,25.89
2022-09-07T13:04:23.317Z,25.89
2022-09-07T13:05:23.477Z,25.91
2022-09-07T13:07:04.090Z,25.99
2022-09-07T13:07:23.459Z,25.88
2022-09-07T13:08:23.490Z,25.88
2022-09-07T13:09:23.202Z,25.85
2022-09-07T13:10:23.497Z,25.88
2022-09-07T13:11:23.461Z,25.93
2022-09-07T13:12:57.938Z,26.03
2022-09-07T13:14:08.785Z,26.06
2022-09-07T13:14:23.803Z,26.19
2022-09-07T13:15:32.771Z,26.2
2022-09-07T13:16:23.930Z,26.12
2022-09-07T13:17:23.931Z,26.07
2022-09-07T13:18:23.211Z,26.12
2022-09-07T13:19:23.256Z,26
2022-09-07T13:20:22.959Z,26.01
2022-09-07T13:21:24.545Z,25.97
2022-09-07T13:22:23.210Z,25.99
2022-09-07T13:23:23.475Z,26.04
2022-09-07T13:24:53.431Z,26.06
2022-09-07T13:25:23.217Z,26.07
2022-09-07T13:26:23.475Z,26.04
2022-09-07T13:27:22.962Z,26.03
2022-09-07T13:28:23.724Z,26.04
2022-09-07T13:29:24.051Z,26.06